createdAt,value
2022-09-16T00:00:47.802Z,100084.88
2022-09-16T00:03:17.449Z,100091.28
2022-09-16T00:05:47.848Z,100084.53
2022-09-16T00:08:16.277Z,100087.69
2022-09-16T00:10:43.972Z,100084.72
2022-09-16T00:13:12.440Z,100082.78
2022-09-16T00:15:44.561Z,100087.53
2022-09-16T00:18:12.078Z,100089.31
2022-09-16T00:20:48.814Z,100084.25
2022-09-16T00:23:15.944Z,100085.41
2022-09-16T00:25:42.835Z,100081.75
2022-09-16T00:28:10.166Z,100088.72
2022-09-16T00:30:37.212Z,100082.13
2022-09-16T00:33:04.075Z,100088.06
2022-09-16T00:35:30.885Z,100085.44
2022-09-16T00:37:57.697Z,100094.16
2022-09-16T00:40:24.640Z,100096.97
2022-09-16T00:42:51.498Z,100089.88
2022-09-16T00:45:24.626Z,100089.53
2022-09-16T00:48:15.021Z,100084.75
2022-09-16T00:50:51.226Z,100085.56
2022-09-16T00:53:43.326Z,100087.41
2022-09-16T00:56:13.385Z,100086.56
2022-09-16T00:59:19.851Z,100087.56
2022-09-16T01:01:47.321Z,100093.34
2022-09-16T01:04:21.446Z,100080.16
2022-09-16T01:06:49.580Z,100078.34
2022-09-16T01:09:18.384Z,100075.72
2022-09-16T01:11:45.336Z,100073.25
2022-09-16T01:14:31.989Z,100083.13
2022-09-16T01:17:15.205Z,100087.41
2022-09-16T01:19:48.021Z,100083.28
2022-09-16T01:22:59.326Z,100076.88
2022-09-16T01:26:19.036Z,100080.47
2022-09-16T01:29:33.205Z,100088.75
2022-09-16T01:32:24.800Z,100090.88
2022-09-16T01:35:29.689Z,100092.34
2022-09-16T01:38:05.270Z,100083.47
2022-09-16T01:40:47.801Z,100087.72
2022-09-16T01:43:31.329Z,100078.03
2022-09-16T01:46:09.357Z,100074.22
2022-09-16T01:48:44.765Z,100068.13
2022-09-16T01:51:26.340Z,100060.38
2022-09-16T01:54:07.100Z,100057.44
2022-09-16T01:57:04.479Z,100050.66
2022-09-16T01:59:57.409Z,100034.69
2022-09-16T02:02:33.393Z,100031.72
2022-09-16T02:05:07.630Z,100049.00
2022-09-16T02:07:39.625Z,100060.72
2022-09-16T02:10:23.092Z,100075.88
2022-09-16T02:12:53.639Z,100080.00
2022-09-16T02:15:23.601Z,100085.63
2022-09-16T02:18:02.668Z,100084.94
2022-09-16T02:20:32.241Z,100083.44
2022-09-16T02:23:07.670Z,100074.22
2022-09-16T02:25:38.773Z,100066.66
2022-09-16T02:28:13.119Z,100066.00
2022-09-16T02:30:47.147Z,100074.56
2022-09-16T02:33:16.903Z,100073.91
2022-09-16T02:35:48.449Z,100079.34
2022-09-16T02:38:25.163Z,100089.41
2022-09-16T02:40:58.242Z,100099.44
2022-09-16T02:43:26.842Z,100098.28
2022-09-16T02:46:33.665Z,100107.50
2022-09-16T02:49:23.679Z,100104.25
2022-09-16T02:52:44.485Z,100097.66
2022-09-16T02:55:23.127Z,100098.47
2022-09-16T02:57:50.355Z,100090.25
2022-09-16T03:00:17.622Z,100093.34
2022-09-16T03:02:45.006Z,100087.09
2022-09-16T03:05:11.929Z,100087.09
2022-09-16T03:07:41.275Z,100095.50
2022-09-16T03:10:14.993Z,100088.91
2022-09-16T03:12:49.422Z,100081.84
2022-09-16T03:15:46.826Z,100080.03
2022-09-16T03:18:27.017Z,100088.72
2022-09-16T03:21:18.645Z,100078.72
2022-09-16T03:24:03.001Z,100069.97
2022-09-16T03:26:59.062Z,100069.63
2022-09-16T03:29:34.838Z,100059.09
2022-09-16T03:32:22.665Z,100056.63
2022-09-16T03:35:00.997Z,100054.47
2022-09-16T03:37:34.181Z,100063.38
2022-09-16T03:40:08.815Z,100057.44
2022-09-16T03:42:39.255Z,100057.44
2022-09-16T03:45:07.492Z,100048.88
2022-09-16T03:47:34.654Z,100047.38
2022-09-16T03:50:01.652Z,100053.16
2022-09-16T03:52:28.438Z,100046.72
2022-09-16T03:54:55.204Z,100057.28
2022-09-16T03:57:22.135Z,100049.22
2022-09-16T03:59:48.952Z,100051.34
2022-09-16T04:02:15.825Z,100051.50
2022-09-16T04:04:42.960Z,100045.41
2022-09-16T04:07:09.732Z,100054.47
2022-09-16T04:09:37.286Z,100051.34
2022-09-16T04:12:07.480Z,100048.22
2022-09-16T04:14:35.503Z,100050.38
2022-09-16T04:17:02.595Z,100041.78
2022-09-16T04:19:29.437Z,100045.91
2022-09-16T04:21:56.309Z,100042.97
2022-09-16T04:24:23.126Z,100043.28
2022-09-16T04:26:50.023Z,100044.59
2022-09-16T04:29:17.325Z,100036.34
2022-09-16T04:31:44.437Z,100038.34
2022-09-16T04:34:14.229Z,100035.06
2022-09-16T04:36:41.026Z,100041.47
2022-09-16T04:39:08.414Z,100038.00
2022-09-16T04:41:35.222Z,100044.78
2022-09-16T04:44:02.361Z,100038.34
2022-09-16T04:46:30.997Z,100041.97
2022-09-16T04:48:59.510Z,100040.00
2022-09-16T04:51:27.948Z,100039.00
2022-09-16T04:53:58.605Z,100044.44
2022-09-16T04:56:29.125Z,100043.13
2022-09-16T04:59:00.310Z,100043.94
2022-09-16T05:01:30.863Z,100048.25
2022-09-16T05:04:01.307Z,100051.53
2022-09-16T05:06:32.324Z,100050.34
2022-09-16T05:09:02.779Z,100053.66
2022-09-16T05:11:36.996Z,100050.03
2022-09-16T05:14:07.650Z,100051.69
2022-09-16T05:16:35.125Z,100050.84
2022-09-16T05:19:05.839Z,100058.94
2022-09-16T05:21:35.910Z,100048.25
2022-09-16T05:24:08.518Z,100058.78
2022-09-16T05:26:38.794Z,100049.88
2022-09-16T05:29:11.049Z,100051.19
2022-09-16T05:31:40.649Z,100065.38
2022-09-16T05:34:14.058Z,100059.59
2022-09-16T05:36:43.722Z,100056.16
2022-09-16T05:39:23.182Z,100051.53
2022-09-16T05:41:55.677Z,100052.50
2022-09-16T05:44:23.161Z,100052.81
2022-09-16T05:46:50.060Z,100059.94
2022-09-16T05:49:21.151Z,100052.69
2022-09-16T05:51:49.410Z,100054.81
2022-09-16T05:54:21.009Z,100057.47
2022-09-16T05:56:48.829Z,100061.22
2022-09-16T05:59:17.332Z,100061.41
2022-09-16T06:01:45.377Z,100064.50
2022-09-16T06:04:15.152Z,100056.94
2022-09-16T06:06:46.994Z,100060.22
2022-09-16T06:09:24.663Z,100066.84
2022-09-16T06:11:59.405Z,100074.75
2022-09-16T06:14:28.455Z,100078.69
2022-09-16T06:16:55.638Z,100073.56
2022-09-16T06:19:22.736Z,100071.09
2022-09-16T06:21:49.829Z,100064.00
2022-09-16T06:24:19.381Z,100068.63
2022-09-16T06:26:48.319Z,100071.28
2022-09-16T06:29:16.602Z,100070.59
2022-09-16T06:31:43.674Z,100073.91
2022-09-16T06:34:18.279Z,100073.03
2022-09-16T06:36:45.821Z,100065.47
2022-09-16T06:39:15.035Z,100063.34
2022-09-16T06:41:41.921Z,100067.63
2022-09-16T06:44:08.848Z,100065.13
2022-09-16T06:46:35.773Z,100069.59
2022-09-16T06:49:06.120Z,100065.66
2022-09-16T06:51:34.510Z,100061.03
2022-09-16T06:54:05.845Z,100066.63
2022-09-16T06:56:35.888Z,100067.63
2022-09-16T06:59:03.535Z,100065.84
2022-09-16T07:01:31.720Z,100064.19
2022-09-16T07:04:01.492Z,100064.31
2022-09-16T07:06:57.362Z,100057.06
2022-09-16T07:09:17.631Z,100057.34
2022-09-16T07:11:44.579Z,100065.56
2022-09-16T07:14:12.287Z,100064.50
2022-09-16T07:16:39.167Z,100069.41
2022-09-16T07:19:06.418Z,100070.16
2022-09-16T07:21:33.311Z,100068.38
2022-09-16T07:24:02.447Z,100071.00
2022-09-16T07:26:32.724Z,100072.75
2022-09-16T07:29:03.599Z,100083.19
2022-09-16T07:31:34.288Z,100079.88
2022-09-16T07:34:04.304Z,100085.19
2022-09-16T07:36:36.302Z,100088.59
2022-09-16T07:39:03.775Z,100087.38
2022-09-16T07:41:38.536Z,100089.56
2022-09-16T07:44:07.400Z,100091.75
2022-09-16T07:46:36.704Z,100089.56
2022-09-16T07:49:07.081Z,100096.63
2022-09-16T07:51:34.948Z,100095.94
2022-09-16T07:54:07.110Z,100100.94
2022-09-16T07:56:37.071Z,100096.28
2022-09-16T07:59:06.634Z,100103.47
2022-09-16T08:01:34.246Z,100102.78
2022-09-16T08:04:02.435Z,100091.75
2022-09-16T08:06:31.770Z,100094.28
2022-09-16T08:09:10.015Z,100098.84
2022-09-16T08:11:42.258Z,100097.84
2022-09-16T08:14:09.081Z,100097.56
2022-09-16T08:16:37.212Z,100095.13
2022-09-16T08:19:04.399Z,100102.41
2022-09-16T08:21:31.357Z,100104.66
2022-09-16T08:23:58.336Z,100103.94
2022-09-16T08:26:26.220Z,100099.81
2022-09-16T08:29:10.129Z,100103.19
2022-09-16T08:31:38.568Z,100110.66
2022-09-16T08:34:06.329Z,100105.31
2022-09-16T08:36:34.067Z,100108.16
2022-09-16T08:39:01.483Z,100110.94
2022-09-16T08:42:00.117Z,100110.19
2022-09-16T08:45:09.883Z,100113.28
2022-09-16T08:48:07.953Z,100105.63
2022-09-16T08:50:42.289Z,100110.34
2022-09-16T08:53:41.186Z,100111.13
2022-09-16T08:56:14.773Z,100114.81
2022-09-16T08:58:49.656Z,100114.28
2022-09-16T09:01:39.380Z,100112.25
2022-09-16T09:04:06.523Z,100122.66
2022-09-16T09:07:10.146Z,100112.06
2022-09-16T09:09:56.993Z,100123.72
2022-09-16T09:12:38.367Z,100118.53
2022-09-16T09:15:44.763Z,100119.22
2022-09-16T09:18:28.616Z,100118.75
2022-09-16T09:21:21.193Z,100114.97
2022-09-16T09:23:53.669Z,100117.22
2022-09-16T09:26:48.859Z,100115.78
2022-09-16T09:29:56.918Z,100118.44
2022-09-16T09:32:46.064Z,100112.81
2022-09-16T09:35:36.168Z,100112.06
2022-09-16T09:38:33.191Z,100113.97
2022-09-16T09:41:36.770Z,100117.59
2022-09-16T09:44:45.505Z,100104.09
2022-09-16T09:47:28.385Z,100102.06
2022-09-16T09:49:58.961Z,100115.59
2022-09-16T09:52:40.150Z,100106.56
2022-09-16T09:55:20.189Z,100100.41
2022-09-16T09:58:34.981Z,100112.84
2022-09-16T10:01:02.114Z,100102.00
2022-09-16T10:03:30.467Z,100098.16
2022-09-16T10:05:57.459Z,100103.94
2022-09-16T10:08:30.898Z,100104.19
2022-09-16T10:11:01.569Z,100099.59
2022-09-16T10:13:30.446Z,100101.22
2022-09-16T10:16:15.731Z,100104.75
2022-09-16T10:18:44.013Z,100099.72
2022-09-16T10:21:15.144Z,100097.31
2022-09-16T10:23:53.732Z,100083.78
2022-09-16T10:26:25.011Z,100084.22
2022-09-16T10:29:14.714Z,100085.84
2022-09-16T10:31:42.824Z,100084.84
2022-09-16T10:34:31.815Z,100087.03
2022-09-16T10:37:19.516Z,100084.88
2022-09-16T10:39:53.521Z,100081.91
2022-09-16T10:42:24.109Z,100076.47
2022-09-16T10:44:55.147Z,100068.63
2022-09-16T10:47:33.925Z,100062.91
2022-09-16T10:50:06.655Z,100061.69
2022-09-16T10:52:45.888Z,100064.94
2022-09-16T10:55:23.723Z,100068.00
2022-09-16T10:57:51.402Z,100052.97
2022-09-16T11:00:22.621Z,100056.22
2022-09-16T11:03:32.362Z,100061.03
2022-09-16T11:06:23.017Z,100063.34
2022-09-16T11:08:57.854Z,100056.19
2022-09-16T11:11:51.976Z,100056.41
2022-09-16T11:14:55.289Z,100060.13
2022-09-16T11:17:56.586Z,100065.44
2022-09-16T11:20:36.699Z,100060.91
2022-09-16T11:23:16.769Z,100061.50
2022-09-16T11:26:01.990Z,100052.09
2022-09-16T11:28:42.777Z,100059.38
2022-09-16T11:31:52.542Z,100050.91
2022-09-16T11:34:34.298Z,100047.81
2022-09-16T11:37:15.267Z,100037.75
2022-09-16T11:40:25.658Z,100042.84
2022-09-16T11:43:11.040Z,100049.09
2022-09-16T11:46:08.409Z,100043.81
2022-09-16T11:49:15.408Z,100053.94
2022-09-16T11:51:54.764Z,100053.13
2022-09-16T11:54:24.583Z,100058.22
2022-09-16T11:56:56.962Z,100044.50
2022-09-16T11:59:32.241Z,100051.94
2022-09-16T12:02:21.895Z,100039.03
2022-09-16T12:05:20.124Z,100048.47
2022-09-16T12:08:23.517Z,100038.09
2022-09-16T12:11:23.258Z,100039.44
2022-09-16T12:14:15.446Z,100035.00
2022-09-16T12:17:06.036Z,100038.09
2022-09-16T12:19:44.100Z,100028.91
2022-09-16T12:22:37.290Z,100022.38
2022-09-16T12:25:13.852Z,100030.75
2022-09-16T12:27:52.466Z,100035.50
2022-09-16T12:30:27.589Z,100049.94
2022-09-16T12:33:11.026Z,100030.94
2022-09-16T12:35:49.267Z,100027.84
2022-09-16T12:38:19.262Z,100024.66
2022-09-16T12:41:37.038Z,100024.66
2022-09-16T12:44:34.457Z,100020.97
2022-09-16T12:47:45.078Z,100019.81
2022-09-16T12:50:38.387Z,100013.28
2022-09-16T12:53:46.262Z,100015.84
2022-09-16T12:56:39.630Z,100022.41
2022-09-16T12:59:36.992Z,100025.09
2022-09-16T13:02:17.985Z,100020.59
2022-09-16T13:04:55.288Z,100018.78
2022-09-16T13:07:28.438Z,100028.00
2022-09-16T13:10:53.781Z,100030.44
2022-09-16T13:13:40.038Z,100030.25
2022-09-16T13:16:09.233Z,100029.78
2022-09-16T13:18:41.324Z,100023.41
2022-09-16T13:21:25.575Z,100041.53
2022-09-16T13:24:27.357Z,100053.34
2022-09-16T13:26:55.432Z,100065.56
2022-09-16T13:29:42.528Z,100054.41
2022-09-16T13:32:40.356Z,100059.22
2022-09-16T13:35:19.632Z,100057.50
2022-09-16T13:37:51.781Z,100059.69
2022-09-16T13:40:30.446Z,100064.31
2022-09-16T13:43:14.074Z,100052.41
2022-09-16T13:45:45.168Z,100054.97
2022-09-16T13:48:23.604Z,100063.31
2022-09-16T13:50:54.905Z,100063.59
2022-09-16T13:53:33.199Z,100068.13
2022-09-16T13:56:40.828Z,100066.91
2022-09-16T13:59:33.377Z,100061.06
2022-09-16T14:02:15.505Z,100057.13
2022-09-16T14:05:42.955Z,100057.34
2022-09-16T14:08:40.545Z,100061.06
2022-09-16T14:11:35.275Z,100056.91
2022-09-16T14:14:36.334Z,100064.47
2022-09-16T14:17:05.913Z,100069.91
2022-09-16T14:19:38.919Z,100068.31
2022-09-16T14:22:19.515Z,100060.69
2022-09-16T14:24:50.338Z,100057.16
2022-09-16T14:27:43.579Z,100052.25
2022-09-16T14:30:19.946Z,100051.09
2022-09-16T14:32:48.868Z,100054.50
2022-09-16T14:35:26.488Z,100055.16
2022-09-16T14:38:08.397Z,100048.81
2022-09-16T14:40:40.523Z,100056.25
2022-09-16T14:43:12.071Z,100047.41
2022-09-16T14:45:45.647Z,100045.28
2022-09-16T14:48:14.636Z,100039.41
2022-09-16T14:50:48.044Z,100042.00
2022-09-16T14:53:35.312Z,100043.28
2022-09-16T14:56:04.780Z,100047.91
2022-09-16T14:58:33.185Z,100047.56
2022-09-16T15:01:10.602Z,100055.94
2022-09-16T15:03:53.099Z,100054.97
2022-09-16T15:06:25.534Z,100046.56
2022-09-16T15:09:00.557Z,100055.63
2022-09-16T15:11:47.676Z,100049.88
2022-09-16T15:14:17.078Z,100063.47
2022-09-16T15:16:53.477Z,100054.34
2022-09-16T15:19:35.051Z,100055.72
2022-09-16T15:22:02.672Z,100061.88
2022-09-16T15:24:34.054Z,100061.25
2022-09-16T15:27:01.652Z,100067.69
2022-09-16T15:29:32.806Z,100075.59
2022-09-16T15:32:20.870Z,100078.19
2022-09-16T15:34:49.502Z,100080.56
2022-09-16T15:37:33.910Z,100076.06
2022-09-16T15:40:22.646Z,100082.34
2022-09-16T15:43:14.572Z,100089.13
2022-09-16T15:45:44.179Z,100087.31
2022-09-16T15:48:20.638Z,100083.03
2022-09-16T15:51:09.129Z,100073.44
2022-09-16T15:53:42.775Z,100068.44
2022-09-16T15:56:48.377Z,100067.00
2022-09-16T15:59:29.538Z,100065.53
2022-09-16T16:02:00.721Z,100071.75
2022-09-16T16:04:32.044Z,100062.88
2022-09-16T16:07:02.077Z,100079.56
2022-09-16T16:09:28.829Z,100066.22
2022-09-16T16:12:16.158Z,100079.00
2022-09-16T16:14:43.697Z,100084.44
2022-09-16T16:17:17.957Z,100081.41
2022-09-16T16:19:47.659Z,100075.81
2022-09-16T16:22:15.417Z,100074.75
2022-09-16T16:24:42.403Z,100080.03
2022-09-16T16:27:10.479Z,100082.50
2022-09-16T16:29:38.816Z,100090.63
2022-09-16T16:32:14.394Z,100093.84
2022-09-16T16:34:47.817Z,100101.69
2022-09-16T16:37:40.291Z,100102.19
2022-09-16T16:40:06.587Z,100115.41
2022-09-16T16:42:34.732Z,100107.50
2022-09-16T16:45:01.741Z,100119.06
2022-09-16T16:47:28.565Z,100118.75
2022-09-16T16:49:55.506Z,100128.28
2022-09-16T16:52:22.390Z,100125.81
2022-09-16T16:54:49.311Z,100123.97
2022-09-16T16:57:16.526Z,100123.81
2022-09-16T16:59:43.357Z,100114.75
2022-09-16T17:02:12.327Z,100118.22
2022-09-16T17:04:39.256Z,100118.06
2022-09-16T17:07:25.146Z,100123.31
2022-09-16T17:09:53.554Z,100124.47
2022-09-16T17:12:20.490Z,100124.13
2022-09-16T17:14:47.623Z,100128.75
2022-09-16T17:17:14.516Z,100134.50
2022-09-16T17:19:41.321Z,100136.47
2022-09-16T17:22:08.228Z,100130.19
2022-09-16T17:24:35.093Z,100133.00
2022-09-16T17:27:02.102Z,100133.78
2022-09-16T17:29:29.131Z,100136.75
2022-09-16T17:32:00.642Z,100126.03
2022-09-16T17:34:27.587Z,100128.50
2022-09-16T17:36:54.639Z,100130.63
2022-09-16T17:39:22.695Z,100139.22
2022-09-16T17:41:51.037Z,100128.81
2022-09-16T17:44:19.282Z,100127.97
2022-09-16T17:46:47.121Z,100133.38
2022-09-16T17:49:21.603Z,100138.16
2022-09-16T17:51:49.594Z,100142.25
2022-09-16T17:54:16.976Z,100144.34
2022-09-16T17:56:44.037Z,100133.47
2022-09-16T17:59:12.886Z,100138.59
2022-09-16T18:01:40.106Z,100143.50
2022-09-16T18:04:07.455Z,100140.56
2022-09-16T18:06:41.641Z,100148.09
2022-09-16T18:09:08.785Z,100154.09
2022-09-16T18:11:38.030Z,100148.94
2022-09-16T18:14:08.024Z,100156.19
2022-09-16T18:16:35.419Z,100161.94
2022-09-16T18:19:03.987Z,100160.81
2022-09-16T18:21:32.105Z,100166.59
2022-09-16T18:24:04.121Z,100168.03
2022-09-16T18:26:32.184Z,100164.94
2022-09-16T18:29:10.832Z,100166.59
2022-09-16T18:31:45.013Z,100161.34
2022-09-16T18:34:13.128Z,100164.44
2022-09-16T18:36:40.791Z,100165.56
2022-09-16T18:39:12.038Z,100163.56
2022-09-16T18:41:41.124Z,100167.81
2022-09-16T18:44:20.776Z,100168.25
2022-09-16T18:46:48.097Z,100182.22
2022-09-16T18:49:17.035Z,100186.84
2022-09-16T18:51:51.273Z,100186.22
2022-09-16T18:54:29.220Z,100187.97
2022-09-16T18:56:59.020Z,100191.50
2022-09-16T18:59:29.798Z,100191.75
2022-09-16T19:02:00.938Z,100180.34
2022-09-16T19:04:31.767Z,100181.31
2022-09-16T19:07:08.270Z,100178.28
2022-09-16T19:09:39.572Z,100184.47
2022-09-16T19:12:11.049Z,100189.63
2022-09-16T19:14:38.853Z,100189.50
2022-09-16T19:17:06.075Z,100191.00
2022-09-16T19:19:33.575Z,100195.22
2022-09-16T19:22:00.487Z,100197.78
2022-09-16T19:24:27.464Z,100198.63
2022-09-16T19:26:55.942Z,100200.78
2022-09-16T19:29:23.421Z,100195.00
2022-09-16T19:31:52.830Z,100199.94
2022-09-16T19:34:21.025Z,100208.72
2022-09-16T19:36:48.464Z,100212.06
2022-09-16T19:39:15.441Z,100210.69
2022-09-16T19:41:43.172Z,100218.78
2022-09-16T19:44:15.793Z,100214.09
2022-09-16T19:46:44.770Z,100225.19
2022-09-16T19:49:17.718Z,100219.16
2022-09-16T19:51:44.912Z,100227.25
2022-09-16T19:54:12.404Z,100228.69
2022-09-16T19:56:39.256Z,100222.56
2022-09-16T19:59:06.158Z,100231.13
2022-09-16T20:01:34.963Z,100225.34
2022-09-16T20:04:06.449Z,100228.69
2022-09-16T20:06:40.778Z,100235.47
2022-09-16T20:09:11.577Z,100228.25
2022-09-16T20:11:42.042Z,100228.31
2022-09-16T20:14:15.453Z,100232.75
2022-09-16T20:16:43.163Z,100226.94
2022-09-16T20:19:13.536Z,100233.19
2022-09-16T20:21:41.324Z,100232.88
2022-09-16T20:24:15.888Z,100232.59
2022-09-16T20:26:42.733Z,100223.13
2022-09-16T20:29:09.601Z,100239.59
2022-09-16T20:31:37.216Z,100237.91
2022-09-16T20:34:05.540Z,100235.19
2022-09-16T20:36:38.130Z,100236.97
2022-09-16T20:39:07.362Z,100231.34
2022-09-16T20:41:35.923Z,100229.41
2022-09-16T20:44:06.487Z,100227.38
2022-09-16T20:46:37.280Z,100224.75
2022-09-16T20:49:06.740Z,100227.97
2022-09-16T20:51:34.760Z,100229.06
2022-09-16T20:54:08.822Z,100233.41
2022-09-16T20:56:42.916Z,100241.28
2022-09-16T20:59:13.223Z,100235.78
2022-09-16T21:01:41.641Z,100246.19
2022-09-16T21:04:18.486Z,100246.19
2022-09-16T21:06:45.834Z,100243.72
2022-09-16T21:09:25.764Z,100240.16
2022-09-16T21:11:52.877Z,100240.84
2022-09-16T21:14:21.873Z,100236.16
2022-09-16T21:16:52.308Z,100252.84
2022-09-16T21:19:21.662Z,100246.38
2022-09-16T21:21:59.099Z,100252.44
2022-09-16T21:24:26.737Z,100249.03
2022-09-16T21:26:53.791Z,100250.53
2022-09-16T21:29:30.965Z,100250.91
2022-09-16T21:31:59.814Z,100253.16
2022-09-16T21:34:29.675Z,100260.34
2022-09-16T21:36:59.185Z,100257.72
2022-09-16T21:39:26.311Z,100262.66
2022-09-16T21:41:53.120Z,100261.16
2022-09-16T21:44:19.962Z,100265.31
2022-09-16T21:46:50.851Z,100260.59
2022-09-16T21:49:24.175Z,100263.09
2022-09-16T21:51:57.231Z,100271.78
2022-09-16T21:54:25.407Z,100275.78
2022-09-16T21:56:52.915Z,100276.06
2022-09-16T21:59:20.227Z,100276.06
2022-09-16T22:01:49.287Z,100275.53
2022-09-16T22:04:20.727Z,100275.81
2022-09-16T22:06:51.248Z,100276.34
2022-09-16T22:09:18.278Z,100273.31
2022-09-16T22:11:45.197Z,100282.41
2022-09-16T22:14:12.234Z,100284.50
2022-09-16T22:16:39.979Z,100278.28
2022-09-16T22:19:14.427Z,100276.63
2022-09-16T22:21:46.149Z,100279.53
2022-09-16T22:24:16.008Z,100275.53
2022-09-16T22:26:43.445Z,100278.84
2022-09-16T22:29:12.426Z,100279.94
2022-09-16T22:31:41.800Z,100287.66
2022-09-16T22:34:09.463Z,100284.63
2022-09-16T22:36:37.942Z,100278.97
2022-09-16T22:39:11.350Z,100282.16
2022-09-16T22:41:38.337Z,100277.03
2022-09-16T22:44:05.528Z,100286.38
2022-09-16T22:46:37.027Z,100282.41
2022-09-16T22:49:04.524Z,100273.28
2022-09-16T22:51:32.246Z,100278.25
2022-09-16T22:53:59.117Z,100273.84
2022-09-16T22:56:31.758Z,100275.63
2022-09-16T22:59:04.619Z,100279.56
2022-09-16T23:01:38.915Z,100269.00
2022-09-16T23:04:08.198Z,100268.31
2022-09-16T23:06:37.482Z,100273.84
2022-09-16T23:09:06.614Z,100273.22
2022-09-16T23:11:35.833Z,100265.53
2022-09-16T23:14:04.098Z,100275.94
2022-09-16T23:16:35.036Z,100267.41
2022-09-16T23:19:07.273Z,100282.72
2022-09-16T23:21:34.153Z,100275.94
2022-09-16T23:24:03.384Z,100280.34
2022-09-16T23:26:37.383Z,100275.78
2022-09-16T23:29:07.684Z,100280.63
2022-09-16T23:31:41.258Z,100282.47
2022-09-16T23:34:19.114Z,100276.84
2022-09-16T23:36:46.563Z,100271.06
2022-09-16T23:39:15.365Z,100279.56
2022-09-16T23:41:43.221Z,100276.56
2022-09-16T23:44:13.449Z,100278.63
2022-09-16T23:46:40.348Z,100285.41
2022-09-16T23:49:07.351Z,100280.47
2022-09-16T23:51:34.198Z,100282.09
2022-09-16T23:54:01.088Z,100283.34
2022-09-16T23:56:28.337Z,100293.81
2022-09-16T23:58:59.070Z,100286.38
